createdAt,value
2022-09-04T02:30:23.976Z,0
2022-09-04T02:31:22.874Z,0
2022-09-04T02:32:22.875Z,0
2022-09-04T02:33:22.851Z,0
2022-09-04T02:34:22.827Z,0
2022-09-04T02:35:22.812Z,0
2022-09-04T02:36:22.864Z,0
2022-09-04T02:37:22.829Z,0
2022-09-04T02:38:22.838Z,0
2022-09-04T02:39:22.891Z,0
2022-09-04T02:40:22.818Z,0
2022-09-04T02:41:22.814Z,0
2022-09-04T02:42:22.827Z,0
2022-09-04T02:43:22.840Z,0
2022-09-04T02:44:22.802Z,0
2022-09-04T02:45:22.819Z,0
2022-09-04T02:46:22.873Z,0
2022-09-04T02:47:22.824Z,0
2022-09-04T02:48:22.888Z,0
2022-09-04T02:49:22.804Z,0
2022-09-04T02:50:22.799Z,0
2022-09-04T02:51:22.812Z,0
2022-09-04T02:52:22.848Z,0
2022-09-04T02:53:22.798Z,0
2022-09-04T02:54:22.804Z,0
2022-09-04T02:55:22.820Z,0
2022-09-04T02:56:22.813Z,0
2022-09-04T02:57:22.828Z,0
2022-09-04T02:58:22.873Z,0
2022-09-04T02:59:22.804Z,0
2022-09-04T03:00:22.804Z,0
2022-09-04T03:01:22.879Z,0
2022-09-04T03:02:22.889Z,0
2022-09-04T03:03:22.815Z,0
2022-09-04T03:04:22.797Z,0
2022-09-04T03:05:22.788Z,0
2022-09-04T03:06:22.802Z,0
2022-09-04T03:07:22.822Z,0
2022-09-04T03:08:22.822Z,0
2022-09-04T03:09:22.804Z,0
2022-09-04T03:10:22.806Z,0
2022-09-04T03:11:22.808Z,0
2022-09-04T03:12:22.824Z,0
2022-09-04T03:13:22.824Z,0
2022-09-04T03:14:22.800Z,0
2022-09-04T03:15:22.819Z,0
2022-09-04T03:16:22.897Z,0
2022-09-04T03:17:22.820Z,0
2022-09-04T03:18:22.814Z,0
2022-09-04T03:19:22.807Z,0
2022-09-04T03:20:22.812Z,0
2022-09-04T03:21:22.813Z,0
2022-09-04T03:22:22.832Z,0
2022-09-04T03:23:22.800Z,0
2022-09-04T03:24:22.805Z,0
2022-09-04T03:25:22.804Z,0
2022-09-04T03:26:22.820Z,0
2022-09-04T03:27:22.839Z,0
2022-09-04T03:28:22.832Z,0
2022-09-04T03:29:22.801Z,0
2022-09-04T03:30:22.796Z,0
2022-09-04T03:31:22.853Z,0
2022-09-04T03:32:22.821Z,0
2022-09-04T03:33:22.810Z,0
2022-09-04T03:34:22.796Z,0
2022-09-04T03:35:22.830Z,0
2022-09-04T03:36:22.796Z,0
2022-09-04T03:37:22.831Z,0
2022-09-04T03:38:22.887Z,0
2022-09-04T03:39:22.833Z,0
2022-09-04T03:40:22.801Z,0
2022-09-04T03:41:22.805Z,0
2022-09-04T03:42:22.819Z,0
2022-09-04T03:43:22.813Z,0
2022-09-04T03:44:22.803Z,0
2022-09-04T03:45:22.803Z,0
2022-09-04T03:46:22.866Z,0
2022-09-04T03:47:22.833Z,0
2022-09-04T03:48:22.908Z,0
2022-09-04T03:49:22.818Z,0
2022-09-04T03:50:22.829Z,0
2022-09-04T03:51:22.798Z,0
2022-09-04T03:52:22.820Z,0
2022-09-04T03:53:22.810Z,0
2022-09-04T03:54:22.829Z,0
2022-09-04T03:55:22.837Z,0
2022-09-04T03:56:22.813Z,0
2022-09-04T03:57:22.826Z,0
2022-09-04T03:58:22.877Z,0
2022-09-04T03:59:22.808Z,0
2022-09-04T04:00:22.826Z,0
2022-09-04T04:01:24.974Z,0
2022-09-04T04:02:22.827Z,0
2022-09-04T04:03:22.806Z,0
2022-09-04T04:04:22.807Z,0
2022-09-04T04:05:22.817Z,0
2022-09-04T04:06:22.809Z,0
2022-09-04T04:07:22.823Z,0
2022-09-04T04:08:22.856Z,0
2022-09-04T04:09:22.798Z,0
2022-09-04T04:10:22.801Z,0.01
2022-09-04T04:11:22.808Z,0.01
2022-09-04T04:12:22.820Z,0.01
2022-09-04T04:13:22.829Z,0.01
2022-09-04T04:14:22.796Z,0.01
2022-09-04T04:15:22.847Z,0.01
2022-09-04T04:16:24.548Z,0.01
2022-09-04T04:17:22.829Z,0.02
2022-09-04T04:18:22.847Z,0.02
2022-09-04T04:19:22.809Z,0.02
2022-09-04T04:20:22.886Z,0.02
2022-09-04T04:21:22.811Z,0.03
2022-09-04T04:22:22.816Z,0.03
2022-09-04T04:23:22.849Z,0.03
2022-09-04T04:24:22.816Z,0.03
2022-09-04T04:25:22.801Z,0.04
2022-09-04T04:26:22.815Z,0.04
2022-09-04T04:27:22.828Z,0.04
2022-09-04T04:28:22.827Z,0.05
2022-09-04T04:29:22.824Z,0.05
2022-09-04T04:30:22.791Z,0.06
2022-09-04T04:31:22.898Z,0.06
2022-09-04T04:32:22.813Z,0.06
2022-09-04T04:33:22.813Z,0.07
2022-09-04T04:34:22.807Z,0.07
2022-09-04T04:35:22.795Z,0.08
2022-09-04T04:36:22.797Z,0.08
2022-09-04T04:37:22.819Z,0.09
2022-09-04T04:38:22.806Z,0.09
2022-09-04T04:39:25.819Z,0.1
2022-09-04T04:40:22.792Z,0.11
2022-09-04T04:41:22.805Z,0.11
2022-09-04T04:42:22.838Z,0.12
2022-09-04T04:43:22.843Z,0.13
2022-09-04T04:44:22.798Z,0.13
2022-09-04T04:45:22.844Z,0.14
2022-09-04T04:46:22.820Z,0.15
2022-09-04T04:47:22.833Z,0.15
2022-09-04T04:48:22.828Z,0.16
2022-09-04T04:49:22.804Z,0.16
2022-09-04T04:50:22.799Z,0.17
2022-09-04T04:51:22.800Z,0.17
2022-09-04T04:52:22.819Z,0.18
2022-09-04T04:53:22.798Z,0.19
2022-09-04T04:54:22.808Z,0.19
2022-09-04T04:55:22.792Z,0.2
2022-09-04T04:56:22.804Z,0.2
2022-09-04T04:57:22.820Z,0.21
2022-09-04T04:58:22.839Z,0.22
2022-09-04T04:59:22.800Z,0.23
2022-09-04T05:00:26.712Z,0.23
2022-09-04T05:01:22.886Z,0.24
2022-09-04T05:02:22.998Z,0.24
2022-09-04T05:03:22.798Z,0.24
2022-09-04T05:04:22.800Z,0.24
2022-09-04T05:05:22.795Z,0.25
2022-09-04T05:06:22.805Z,0.24
2022-09-04T05:07:22.834Z,0.24
2022-09-04T05:08:22.861Z,0.24
2022-09-04T05:09:22.798Z,0.24
2022-09-04T05:10:22.793Z,0.24
2022-09-04T05:11:22.792Z,0.24
2022-09-04T05:12:22.834Z,0.24
2022-09-04T05:13:22.818Z,0.24
2022-09-04T05:14:22.807Z,0.24
2022-09-04T05:15:22.881Z,0.24
2022-09-04T05:16:22.894Z,0.24
2022-09-04T05:17:22.822Z,0.24
2022-09-04T05:18:22.817Z,0.24
2022-09-04T05:19:22.798Z,0.23
2022-09-04T05:20:22.793Z,0.23
2022-09-04T05:21:22.796Z,0.23
2022-09-04T05:22:22.822Z,0.23
2022-09-04T05:23:28.539Z,0.23
2022-09-04T05:24:22.812Z,0.24
2022-09-04T05:25:22.798Z,0.24
2022-09-04T05:26:22.810Z,0.25
2022-09-04T05:27:22.820Z,0.25
2022-09-04T05:28:22.877Z,0.26
2022-09-04T05:29:22.860Z,0.26
2022-09-04T05:30:22.810Z,0.27
2022-09-04T05:31:22.968Z,0.27
2022-09-04T05:32:22.817Z,0.28
2022-09-04T05:33:22.811Z,0.28
2022-09-04T05:34:22.797Z,0.3
2022-09-04T05:35:23.170Z,0.31
2022-09-04T05:36:22.814Z,0.33
2022-09-04T05:37:22.817Z,0.33
2022-09-04T05:38:22.891Z,0.37
2022-09-04T05:39:22.905Z,0.67
2022-09-04T05:40:22.807Z,0.72
2022-09-04T05:41:22.807Z,0.79
2022-09-04T05:42:22.805Z,0.91
2022-09-04T05:43:22.820Z,1.04
2022-09-04T05:44:22.804Z,1.1
2022-09-04T05:45:22.797Z,1.11
2022-09-04T05:46:22.878Z,1.15
2022-09-04T05:47:23.598Z,1.18
2022-09-04T05:48:22.892Z,1.22
2022-09-04T05:49:22.795Z,1.24
2022-09-04T05:50:22.820Z,1.26
2022-09-04T05:51:22.792Z,1.25
2022-09-04T05:52:22.823Z,1.24
2022-09-04T05:53:22.790Z,1.31
2022-09-04T05:54:22.793Z,1.38
2022-09-04T05:55:22.803Z,1.47
2022-09-04T05:56:22.800Z,1.55
2022-09-04T05:57:22.854Z,1.62
2022-09-04T05:58:22.929Z,1.69
2022-09-04T05:59:22.789Z,1.75
2022-09-04T06:00:22.812Z,1.84
2022-09-04T06:01:22.863Z,1.93
2022-09-04T06:02:22.879Z,1.97
2022-09-04T06:03:22.802Z,2.04
2022-09-04T06:04:22.800Z,2.07
2022-09-04T06:05:22.799Z,2.13
2022-09-04T06:06:22.804Z,2.16
2022-09-04T06:07:22.820Z,2.2
2022-09-04T06:08:27.873Z,2.2
2022-09-04T06:09:22.792Z,2.26
2022-09-04T06:10:22.807Z,2.31
2022-09-04T06:11:22.812Z,2.37
2022-09-04T06:12:22.816Z,2.39
2022-09-04T06:13:22.870Z,2.44
2022-09-04T06:14:22.806Z,2.5
2022-09-04T06:15:22.793Z,2.53
2022-09-04T06:16:22.846Z,2.56
2022-09-04T06:17:22.815Z,2.57
2022-09-04T06:18:22.901Z,2.65
2022-09-04T06:19:22.803Z,2.68
2022-09-04T06:20:22.798Z,2.68
2022-09-04T06:21:22.816Z,2.71
2022-09-04T06:22:22.814Z,2.79
2022-09-04T06:23:22.807Z,2.78
2022-09-04T06:24:22.802Z,2.81
2022-09-04T06:25:23.516Z,2.83
2022-09-04T06:26:22.807Z,2.34
2022-09-04T06:27:22.826Z,1.9
2022-09-04T06:28:22.850Z,1.78
2022-09-04T06:29:22.824Z,1.75
2022-09-04T06:30:22.791Z,1.75
2022-09-04T06:31:22.851Z,1.78
2022-09-04T06:32:22.817Z,1.86
2022-09-04T06:33:22.804Z,2.38
2022-09-04T06:34:22.797Z,3.1
2022-09-04T06:35:22.819Z,3.28
2022-09-04T06:36:22.791Z,3.26
2022-09-04T06:37:22.816Z,3.39
2022-09-04T06:38:22.815Z,3.46
2022-09-04T06:39:22.901Z,3.51
2022-09-04T06:40:22.807Z,3.49
2022-09-04T06:41:22.795Z,3.56
2022-09-04T06:42:22.819Z,3.59
2022-09-04T06:43:22.816Z,3.6
2022-09-04T06:44:22.793Z,3.69
2022-09-04T06:45:22.796Z,3.72
2022-09-04T06:46:22.826Z,3.7
2022-09-04T06:47:22.833Z,3.73
2022-09-04T06:48:22.910Z,3.89
2022-09-04T06:49:22.799Z,4.08
2022-09-04T06:50:22.818Z,4.13
2022-09-04T06:51:22.795Z,4.18
2022-09-04T06:52:22.812Z,4.29
2022-09-04T06:53:22.810Z,4.42
2022-09-04T06:54:22.791Z,4.49
2022-09-04T06:55:22.794Z,4.47
2022-09-04T06:56:22.796Z,4.38
2022-09-04T06:57:22.826Z,4.35
2022-09-04T06:58:22.822Z,4.34
2022-09-04T06:59:22.797Z,4.45
2022-09-04T07:00:25.297Z,4.51
2022-09-04T07:01:22.857Z,4.6
2022-09-04T07:02:22.950Z,4.57
2022-09-04T07:03:22.792Z,4.54
2022-09-04T07:04:22.794Z,4.5
2022-09-04T07:05:22.795Z,4.4
2022-09-04T07:06:22.801Z,4.24
2022-09-04T07:07:22.820Z,4.11
2022-09-04T07:08:22.856Z,4.11
2022-09-04T07:09:22.808Z,4.08
2022-09-04T07:10:22.830Z,4.2
2022-09-04T07:11:22.797Z,4.32
2022-09-04T07:12:22.815Z,4.37
2022-09-04T07:13:22.811Z,4.4
2022-09-04T07:14:22.804Z,4.42
2022-09-04T07:15:22.795Z,4.51
2022-09-04T07:16:22.860Z,4.47
2022-09-04T07:17:22.817Z,4.36
2022-09-04T07:18:22.849Z,4.5
2022-09-04T07:20:24.176Z,4.58
2022-09-04T07:21:22.254Z,4.54
2022-09-04T07:22:22.260Z,4.7
2022-09-04T07:23:22.255Z,4.67
2022-09-04T07:24:22.284Z,4.68
2022-09-04T07:25:22.241Z,4.42
2022-09-04T07:26:22.247Z,4.45
2022-09-04T07:27:22.267Z,4.69
2022-09-04T07:28:22.272Z,4.66
2022-09-04T07:29:25.805Z,4.62
2022-09-04T07:30:22.245Z,4.53
2022-09-04T07:31:22.312Z,4.49
2022-09-04T07:32:22.247Z,4.66
2022-09-04T07:33:22.245Z,4.7
2022-09-04T07:34:22.243Z,4.74
2022-09-04T07:35:22.229Z,4.7
2022-09-04T07:36:25.311Z,4.21
2022-09-04T07:37:22.259Z,3.74
2022-09-04T07:38:22.310Z,3.53
2022-09-04T07:39:22.307Z,3.46
2022-09-04T07:40:22.226Z,3.4
2022-09-04T07:41:22.236Z,3.31
2022-09-04T07:42:22.245Z,3.29
2022-09-04T07:43:22.255Z,3.3
2022-09-04T07:44:22.235Z,3.32
2022-09-04T07:45:22.235Z,3.39
2022-09-04T07:46:22.337Z,3.39
2022-09-04T07:47:22.247Z,3.4
2022-09-04T07:48:22.271Z,3.46
2022-09-04T07:49:22.234Z,3.42
2022-09-04T07:50:22.220Z,3.38
2022-09-04T07:51:22.240Z,3.47
2022-09-04T07:52:22.236Z,2.99
2022-09-04T07:53:22.236Z,3.45
2022-09-04T07:54:22.404Z,3.49
2022-09-04T07:55:22.221Z,3.98
2022-09-04T07:56:22.230Z,3.99
2022-09-04T07:57:22.234Z,4
2022-09-04T07:58:22.245Z,4.09
2022-09-04T07:59:22.238Z,4.14
2022-09-04T08:00:22.230Z,4.24
2022-09-04T08:01:22.263Z,4.42
2022-09-04T08:02:22.245Z,4.56
2022-09-04T08:03:22.247Z,4.49
2022-09-04T08:04:22.238Z,4.53
2022-09-04T08:05:22.230Z,4.8
2022-09-04T08:06:22.220Z,4.85
2022-09-04T08:07:24.807Z,4.13
2022-09-04T08:08:22.350Z,4.13
2022-09-04T08:09:34.989Z,4.13
2022-09-04T08:10:33.970Z,3.67
2022-09-04T08:11:33.907Z,3.8
2022-09-04T08:12:33.903Z,4.19
2022-09-04T08:13:34.024Z,4.21
2022-09-04T08:14:34.000Z,2.56
2022-09-04T08:15:35.441Z,2.6
2022-09-04T08:16:33.897Z,2.38
2022-09-04T08:17:34.206Z,2.16
2022-09-04T08:18:33.884Z,2.06
2022-09-04T08:19:33.952Z,2.06
2022-09-04T08:20:33.890Z,2.03
2022-09-04T08:21:33.889Z,1.98
2022-09-04T08:22:33.891Z,2.03
2022-09-04T08:23:33.891Z,2
2022-09-04T08:24:33.886Z,2.11
2022-09-04T08:25:33.878Z,2.23
2022-09-04T08:26:34.487Z,2.42
2022-09-04T08:27:33.903Z,2.97
2022-09-04T08:28:34.043Z,3.54
2022-09-04T08:29:33.878Z,4.07
2022-09-04T08:30:33.971Z,5.21
2022-09-04T08:31:33.872Z,4.03
2022-09-04T08:32:37.979Z,4.15
2022-09-04T08:33:34.284Z,3.22
2022-09-04T08:34:33.880Z,3.6
2022-09-04T08:35:33.880Z,5.49
2022-09-04T08:36:33.907Z,5.83
2022-09-04T08:37:33.904Z,5.69
2022-09-04T08:38:33.871Z,5.62
2022-09-04T08:39:33.908Z,5.32
2022-09-04T08:40:33.878Z,5.83
2022-09-04T08:41:33.873Z,6.29
2022-09-04T08:42:33.886Z,6.06
2022-09-04T08:43:33.944Z,4.33
2022-09-04T08:44:34.151Z,6.52
2022-09-04T08:45:42.461Z,5.01
2022-09-04T08:46:34.051Z,4.93
2022-09-04T08:47:34.000Z,5.49
2022-09-04T08:48:33.869Z,6.25
2022-09-04T08:49:33.914Z,4.06
2022-09-04T08:50:33.876Z,2.62
2022-09-04T08:51:33.922Z,3.9
2022-09-04T08:52:33.888Z,2.51
2022-09-04T08:53:33.870Z,2.36
2022-09-04T08:54:33.878Z,2.39
2022-09-04T08:55:33.923Z,2.6
2022-09-04T08:56:33.879Z,6.61
2022-09-04T08:57:33.897Z,6.73
2022-09-04T08:58:34.499Z,6.46
2022-09-04T08:59:33.892Z,6.93
2022-09-04T09:00:33.914Z,6.61
2022-09-04T09:01:33.936Z,6.94
2022-09-04T09:02:33.949Z,6.97
2022-09-04T09:03:33.945Z,7.04
2022-09-04T09:04:33.861Z,7.07
2022-09-04T09:05:33.866Z,7.34
2022-09-04T09:06:33.861Z,6.66
2022-09-04T09:07:33.887Z,6.7
2022-09-04T09:08:33.934Z,6.7
2022-09-04T09:09:33.917Z,6.64
2022-09-04T09:10:34.579Z,6.71
2022-09-04T09:11:33.875Z,5.41
2022-09-04T09:12:41.070Z,4.59
2022-09-04T09:13:33.893Z,3.29
2022-09-04T09:14:33.860Z,2.99
2022-09-04T09:15:33.861Z,2.91
2022-09-04T09:16:33.948Z,2.86
2022-09-04T09:17:34.478Z,3.02
2022-09-04T09:18:33.876Z,2.98
2022-09-04T09:19:33.906Z,3.89
2022-09-04T09:20:33.866Z,2.88
2022-09-04T09:21:33.884Z,2.99
2022-09-04T09:22:33.889Z,2.69
2022-09-04T09:23:33.877Z,2.62
2022-09-04T09:24:33.874Z,2.63
2022-09-04T09:25:33.875Z,2.69
2022-09-04T09:26:33.875Z,2.68
2022-09-04T09:27:33.898Z,2.73
2022-09-04T09:28:33.889Z,3.8
2022-09-04T09:29:33.875Z,8.19
2022-09-04T09:30:33.912Z,8.23
2022-09-04T09:31:33.883Z,8.21
2022-09-04T09:32:33.891Z,7.98
2022-09-04T09:33:33.907Z,8.1
2022-09-04T09:34:33.879Z,8.1
2022-09-04T09:35:33.874Z,8.08
2022-09-04T09:36:33.857Z,7.94
2022-09-04T09:37:33.921Z,7.78
2022-09-04T09:38:33.871Z,7.67
2022-09-04T09:39:34.057Z,7.54
2022-09-04T09:40:33.857Z,7.41
2022-09-04T09:41:33.870Z,7.22
2022-09-04T09:42:33.896Z,7.18
2022-09-04T09:43:33.908Z,7.21
2022-09-04T09:44:33.873Z,7
2022-09-04T09:45:33.865Z,7.05
2022-09-04T09:46:33.862Z,6.69
2022-09-04T09:47:33.907Z,6.14
2022-09-04T09:48:33.873Z,5.83
2022-09-04T09:49:33.875Z,7.05
2022-09-04T09:50:33.859Z,6.81
2022-09-04T09:51:33.881Z,6.98
2022-09-04T09:52:33.901Z,7.07
2022-09-04T09:53:33.866Z,7.12
2022-09-04T09:54:33.869Z,7.17
2022-09-04T09:55:33.887Z,7.23
2022-09-04T09:57:29.641Z,7.28
2022-09-04T09:58:22.511Z,7.48
2022-09-04T10:00:30.529Z,7.52
2022-09-04T10:01:28.280Z,7.54
2022-09-04T10:02:28.210Z,7.53
2022-09-04T10:03:28.192Z,7.59
2022-09-04T10:04:28.175Z,7.6
2022-09-04T10:05:28.210Z,7.65
2022-09-04T10:06:57.405Z,7.67
2022-09-04T10:07:56.440Z,7.67
2022-09-04T10:10:08.396Z,7.47
2022-09-04T10:11:06.059Z,7.44
2022-09-04T10:12:06.029Z,7.46
2022-09-04T10:13:06.039Z,7.46
2022-09-04T10:14:06.037Z,7.48
2022-09-04T10:15:06.033Z,7.33
2022-09-04T10:16:06.033Z,7.3
2022-09-04T10:17:06.036Z,7.31
2022-09-04T10:18:06.028Z,7.35
2022-09-04T10:19:06.055Z,7.45
2022-09-04T10:20:06.018Z,7.42
2022-09-04T10:21:06.043Z,7.41
2022-09-04T10:22:06.022Z,7.44
2022-09-04T10:23:06.026Z,7.45
2022-09-04T10:24:20.987Z,7.43
2022-09-04T10:25:19.710Z,7.43
2022-09-04T10:26:19.971Z,7.38
2022-09-04T10:27:19.700Z,7.37
2022-09-04T10:28:19.999Z,7.35
2022-09-04T10:29:19.708Z,7.29
2022-09-04T10:30:19.875Z,7.23
2022-09-04T10:31:19.711Z,7.24
2022-09-04T10:32:19.698Z,7.24
2022-09-04T10:33:19.972Z,7.28
2022-09-04T10:34:19.704Z,7.24
2022-09-04T10:35:20.047Z,7.23
2022-09-04T10:36:19.669Z,7.25
2022-09-04T10:37:19.697Z,7.25
2022-09-04T10:38:19.701Z,7.27
2022-09-04T10:39:19.740Z,7.3
2022-09-04T10:40:20.092Z,7.31
2022-09-04T10:41:19.680Z,7.24
2022-09-04T10:42:19.702Z,7.21
2022-09-04T10:43:19.717Z,7.22
2022-09-04T10:44:19.687Z,7.05
2022-09-04T10:45:19.691Z,7.06
2022-09-04T10:46:23.081Z,7
2022-09-04T10:47:20.026Z,6.96
2022-09-04T10:48:19.730Z,6.97
2022-09-04T10:49:19.983Z,6.95
2022-09-04T10:50:19.694Z,7.04
2022-09-04T10:51:19.672Z,7
2022-09-04T10:52:19.701Z,6.92
2022-09-04T10:53:19.800Z,6.85
2022-09-04T10:54:19.695Z,6.87
2022-09-04T10:55:19.671Z,6.93
2022-09-04T10:56:21.524Z,6.9
2022-09-04T10:57:19.738Z,6.84
2022-09-04T10:58:20.286Z,6.76
2022-09-04T10:59:19.676Z,6.85
2022-09-04T11:00:19.698Z,6.79
2022-09-04T11:01:19.724Z,6.78
2022-09-04T11:02:19.744Z,6.83
2022-09-04T11:03:20.293Z,6.74
2022-09-04T11:04:19.664Z,6.79
2022-09-04T11:05:19.679Z,6.78
2022-09-04T11:06:19.671Z,6.83
2022-09-04T11:07:19.669Z,6.88
2022-09-04T11:08:19.689Z,6.88
2022-09-04T11:09:19.673Z,6.84
2022-09-04T11:10:19.676Z,6.85
2022-09-04T11:11:19.703Z,6.78
2022-09-04T11:12:19.684Z,6.75
2022-09-04T11:13:19.718Z,6.75
2022-09-04T11:14:19.685Z,6.7
2022-09-04T11:15:19.714Z,6.75
2022-09-04T11:16:19.787Z,6.76
2022-09-04T11:17:19.829Z,6.72
2022-09-04T11:18:19.702Z,6.71
2022-09-04T11:19:19.680Z,6.69
2022-09-04T11:20:19.736Z,6.73
2022-09-04T11:21:19.687Z,6.7
2022-09-04T11:22:20.173Z,6.71
2022-09-04T11:23:19.781Z,6.68
2022-09-04T11:24:20.074Z,6.71
2022-09-04T11:25:19.677Z,6.63
2022-09-04T11:26:19.682Z,6.68
2022-09-04T11:27:19.684Z,6.71
2022-09-04T11:28:19.677Z,6.7
2022-09-04T11:29:19.695Z,6.71
2022-09-04T11:30:19.714Z,6.76
2022-09-04T11:31:19.723Z,6.79
2022-09-04T11:32:19.697Z,6.74
2022-09-04T11:33:19.702Z,6.75
2022-09-04T11:34:19.675Z,6.89
2022-09-04T11:35:19.679Z,6.94
2022-09-04T11:36:19.686Z,6.95
2022-09-04T11:37:19.677Z,6.8
2022-09-04T11:38:19.707Z,6.77
2022-09-04T11:39:19.735Z,6.73
2022-09-04T11:40:19.677Z,6.59
2022-09-04T11:41:19.667Z,6.46
2022-09-04T11:42:19.686Z,6.5
2022-09-04T11:43:19.738Z,6.45
2022-09-04T11:44:19.687Z,6.4
2022-09-04T11:45:19.682Z,6.46
2022-09-04T11:46:19.685Z,6.45
2022-09-04T11:47:19.691Z,6.39
2022-09-04T11:48:19.701Z,6.41
2022-09-04T11:49:19.685Z,6.43
2022-09-04T11:50:19.673Z,6.38
2022-09-04T11:51:19.662Z,6.38
2022-09-04T11:52:19.682Z,6.25
2022-09-04T11:53:19.807Z,6.2
2022-09-04T11:54:19.767Z,6.3
2022-09-04T11:55:19.661Z,6.29
2022-09-04T11:56:19.661Z,6.17
2022-09-04T11:57:19.690Z,6.25
2022-09-04T11:58:19.694Z,6.23
2022-09-04T11:59:19.680Z,6.07
2022-09-04T12:00:19.730Z,5.82
2022-09-04T12:01:19.678Z,5.86
2022-09-04T12:02:19.706Z,5.86
2022-09-04T12:03:19.699Z,5.58
2022-09-04T12:04:19.694Z,5.72
2022-09-04T12:05:19.670Z,5.56
2022-09-04T12:06:19.666Z,5.41
2022-09-04T12:07:19.690Z,5.37
2022-09-04T12:08:19.702Z,5.37
2022-09-04T12:09:19.674Z,4.91
2022-09-04T12:10:19.682Z,4.76
2022-09-04T12:11:19.666Z,4.36
2022-09-04T12:12:19.668Z,4.73
2022-09-04T12:13:19.680Z,4.63
2022-09-04T12:14:19.663Z,3.45
2022-09-04T12:15:19.851Z,1.88
2022-09-04T12:16:19.697Z,1.66
2022-09-04T12:17:19.662Z,3.54
2022-09-04T12:18:19.689Z,5.13
2022-09-04T12:19:19.665Z,6.33
2022-09-04T12:20:19.703Z,6.27
2022-09-04T12:21:19.664Z,6.08
2022-09-04T12:22:19.673Z,6.39
2022-09-04T12:23:19.815Z,7.47
2022-09-04T12:24:19.667Z,7.96
2022-09-04T12:25:19.700Z,8.68
2022-09-04T12:26:19.686Z,8.6
2022-09-04T12:27:19.676Z,8.88
2022-09-04T12:28:19.701Z,9.13
2022-09-04T12:29:19.671Z,9.12
2022-09-04T12:30:19.711Z,8.49
2022-09-04T12:31:19.716Z,7.3
2022-09-04T12:32:19.680Z,7.77
2022-09-04T12:33:19.955Z,8.4
2022-09-04T12:34:19.683Z,8.5
2022-09-04T12:35:19.679Z,8.14
2022-09-04T12:36:19.686Z,8.68
2022-09-04T12:37:19.680Z,8.95
2022-09-04T12:38:19.705Z,8.91
2022-09-04T12:39:19.827Z,8.86
2022-09-04T12:40:19.765Z,8.81
2022-09-04T12:41:19.671Z,6.58
2022-09-04T12:42:19.679Z,8.43
2022-09-04T12:43:19.713Z,8.43
2022-09-04T12:44:19.677Z,4.96
2022-09-04T12:45:19.774Z,3.74
2022-09-04T12:46:19.665Z,2.99
2022-09-04T12:47:19.685Z,2.74
2022-09-04T12:48:19.701Z,2.43
2022-09-04T12:49:19.683Z,2.25
2022-09-04T12:50:19.706Z,2.2
2022-09-04T12:51:19.680Z,2.19
2022-09-04T12:52:19.679Z,2.13
2022-09-04T12:53:19.772Z,2.16
2022-09-04T12:54:19.685Z,2.16
2022-09-04T12:55:19.665Z,2.45
2022-09-04T12:56:19.693Z,2.08
2022-09-04T12:57:19.688Z,1.83
2022-09-04T12:58:19.696Z,1.75
2022-09-04T12:59:19.686Z,1.77
2022-09-04T13:00:19.686Z,1.84
2022-09-04T13:01:19.737Z,1.93
2022-09-04T13:02:19.776Z,1.96
2022-09-04T13:03:19.700Z,1.95
2022-09-04T13:04:19.682Z,1.93
2022-09-04T13:05:19.666Z,1.94
2022-09-04T13:06:19.679Z,1.99
2022-09-04T13:07:19.674Z,2.06
2022-09-04T13:08:19.684Z,2.06
2022-09-04T13:09:19.695Z,2.63
2022-09-04T13:10:19.666Z,2.5
2022-09-04T13:11:19.692Z,2.49
2022-09-04T13:12:19.660Z,2.74
2022-09-04T13:13:19.720Z,2.5
2022-09-04T13:14:19.692Z,2.47
2022-09-04T13:15:19.687Z,2.47
2022-09-04T13:16:19.747Z,2.5
2022-09-04T13:17:19.664Z,4.54
2022-09-04T13:18:19.676Z,3
2022-09-04T13:19:19.666Z,3.26
2022-09-04T13:20:19.677Z,7.33
2022-09-04T13:21:19.660Z,7.2
2022-09-04T13:22:19.672Z,4.11
2022-09-04T13:23:19.682Z,2.84
2022-09-04T13:24:19.699Z,4.65
2022-09-04T13:25:19.671Z,8.07
2022-09-04T13:26:19.659Z,7.82
2022-09-04T13:27:19.671Z,7.58
2022-09-04T13:28:19.750Z,7.99
2022-09-04T13:29:19.666Z,8.41
2022-09-04T13:30:20.331Z,8.48
2022-09-04T13:31:19.763Z,6.62
2022-09-04T13:32:19.682Z,5.11
2022-09-04T13:33:19.731Z,7.46
2022-09-04T13:34:19.692Z,6.21
2022-09-04T13:35:20.055Z,6.13
2022-09-04T13:36:19.670Z,6.48
2022-09-04T13:37:19.684Z,7.42
2022-09-04T13:38:19.698Z,8.43
2022-09-04T13:39:19.744Z,7.1
2022-09-04T13:40:19.666Z,6.94
2022-09-04T13:41:19.674Z,7.08
2022-09-04T13:42:19.687Z,7.11
2022-09-04T13:43:19.826Z,2.51
2022-09-04T13:44:19.685Z,7.04
2022-09-04T13:45:19.684Z,6.54
2022-09-04T13:46:19.702Z,6.61
2022-09-04T13:47:19.707Z,6.36
2022-09-04T13:48:20.363Z,6.49
2022-09-04T13:49:19.694Z,6.79
2022-09-04T13:50:23.674Z,6.48
2022-09-04T13:51:19.685Z,6.17
2022-09-04T13:52:19.660Z,6.36
2022-09-04T13:53:19.711Z,6.25
2022-09-04T13:54:19.684Z,6.11
2022-09-04T13:55:19.672Z,6.19
2022-09-04T13:56:19.679Z,5.85
2022-09-04T13:57:19.677Z,5.78
2022-09-04T13:58:19.729Z,5.63
2022-09-04T13:59:19.675Z,5.55
2022-09-04T14:00:19.765Z,5.41
2022-09-04T14:01:19.778Z,4.85
2022-09-04T14:02:19.765Z,4.84
2022-09-04T14:03:19.760Z,4.96
2022-09-04T14:04:19.714Z,4.56
2022-09-04T14:05:19.659Z,4.51
2022-09-04T14:06:19.669Z,4.61
2022-09-04T14:07:19.676Z,4.84
2022-09-04T14:08:19.817Z,4.84
2022-09-04T14:09:19.682Z,4.75
2022-09-04T14:10:20.034Z,4.55
2022-09-04T14:11:19.963Z,4.62
2022-09-04T14:12:19.675Z,4.66
2022-09-04T14:13:19.854Z,4.45
2022-09-04T14:14:19.680Z,4.34
2022-09-04T14:15:19.690Z,4.16
2022-09-04T14:16:19.761Z,4.2
2022-09-04T14:17:19.685Z,4.51
2022-09-04T14:18:20.195Z,4.53
2022-09-04T14:19:19.681Z,4.21
2022-09-04T14:20:22.459Z,4.26
2022-09-04T14:21:19.738Z,4.21
2022-09-04T14:22:20.015Z,4.08
2022-09-04T14:23:19.716Z,3.99
2022-09-04T14:24:19.660Z,4.19
2022-09-04T14:25:19.671Z,4.2
2022-09-04T14:26:19.702Z,4.18
2022-09-04T14:27:20.158Z,4.17
2022-09-04T14:28:19.806Z,4.21
2022-09-04T14:29:19.665Z,4.18
2022-09-04T14:30:19.730Z,4.24
2022-09-04T14:31:19.701Z,4.25
2022-09-04T14:32:19.705Z,3.86
2022-09-04T14:33:21.940Z,4.09
2022-09-04T14:34:19.664Z,4.05
2022-09-04T14:35:19.664Z,3.71
2022-09-04T14:36:19.662Z,3.53
2022-09-04T14:37:19.682Z,4.08
2022-09-04T14:38:19.710Z,4.12
2022-09-04T14:39:19.715Z,3.79
2022-09-04T14:40:19.700Z,3.26
2022-09-04T14:41:20.049Z,3.24
2022-09-04T14:42:19.664Z,3.11
2022-09-04T14:43:19.762Z,2.97
2022-09-04T14:44:19.680Z,2.7
2022-09-04T14:45:19.685Z,2.44
2022-09-04T14:46:19.726Z,2.26
2022-09-04T14:47:19.688Z,2.21
2022-09-04T14:48:19.726Z,2.27
2022-09-04T14:49:19.680Z,2.2
2022-09-04T14:50:19.678Z,2.04
2022-09-04T14:51:19.674Z,1.97
2022-09-04T14:52:19.746Z,1.94
2022-09-04T14:53:19.686Z,1.88
2022-09-04T14:54:19.684Z,1.84
2022-09-04T14:55:19.667Z,1.83
2022-09-04T14:56:19.667Z,1.8
2022-09-04T14:57:19.683Z,1.78
2022-09-04T14:58:19.952Z,1.67
2022-09-04T14:59:19.690Z,1.67
2022-09-04T15:00:19.683Z,1.64
2022-09-04T15:01:19.715Z,1.62
2022-09-04T15:02:19.705Z,1.61
2022-09-04T15:03:19.998Z,1.61
2022-09-04T15:04:19.700Z,1.61
2022-09-04T15:05:19.671Z,1.63
2022-09-04T15:06:24.016Z,1.66
2022-09-04T15:07:19.686Z,1.68
2022-09-04T15:08:19.744Z,1.68
2022-09-04T15:09:19.681Z,1.71
2022-09-04T15:10:19.683Z,1.69
2022-09-04T15:11:19.684Z,1.7
2022-09-04T15:12:24.661Z,1.71
2022-09-04T15:13:19.740Z,1.77
2022-09-04T15:14:19.674Z,1.8
2022-09-04T15:15:19.683Z,1.82
2022-09-04T15:16:19.796Z,1.82
2022-09-04T15:17:19.677Z,1.96
2022-09-04T15:18:19.747Z,1.93
2022-09-04T15:19:19.680Z,1.71
2022-09-04T15:20:19.664Z,1.49
2022-09-04T15:21:21.257Z,1.11
2022-09-04T15:22:19.666Z,1.48
2022-09-04T15:23:19.752Z,1.51
2022-09-04T15:24:24.488Z,1.47
2022-09-04T15:25:19.750Z,1.38
2022-09-04T15:26:19.670Z,1.3
2022-09-04T15:27:19.670Z,1.23
2022-09-04T15:28:19.706Z,1.24
2022-09-04T15:29:19.677Z,1.21
2022-09-04T15:30:19.690Z,1.21
2022-09-04T15:31:19.847Z,1.21
2022-09-04T15:32:19.658Z,1.21
2022-09-04T15:33:19.780Z,0.62
2022-09-04T15:34:19.675Z,0.79
2022-09-04T15:35:19.666Z,1.06
2022-09-04T15:36:19.661Z,1.03
2022-09-04T15:37:19.673Z,1.07
2022-09-04T15:38:19.738Z,0.86
2022-09-04T15:39:19.801Z,0.69
2022-09-04T15:40:19.676Z,0.89
2022-09-04T15:41:19.663Z,0.93
2022-09-04T15:42:19.672Z,1.03
2022-09-04T15:43:19.704Z,1.07
2022-09-04T15:44:19.685Z,1.07
2022-09-04T15:45:19.686Z,1.07
2022-09-04T15:47:09.003Z,1.07
2022-09-04T15:48:07.954Z,1.05
2022-09-04T15:49:07.922Z,1.02
2022-09-04T15:50:08.037Z,1
2022-09-04T15:51:07.920Z,0.98
2022-09-04T15:52:07.911Z,0.95
2022-09-04T15:53:07.919Z,0.93
2022-09-04T15:54:08.006Z,0.9
2022-09-04T15:55:07.986Z,0.89
2022-09-04T15:56:07.913Z,0.9
2022-09-04T15:57:07.924Z,0.9
2022-09-04T15:58:07.920Z,0.87
2022-09-04T15:59:07.941Z,0.77
2022-09-04T16:00:07.915Z,0.66
2022-09-04T16:01:07.924Z,0.62
2022-09-04T16:02:08.047Z,0.59
2022-09-04T16:03:08.007Z,0.53
2022-09-04T16:04:07.918Z,0.5
2022-09-04T16:05:07.920Z,0.49
2022-09-04T16:06:07.901Z,0.48
2022-09-04T16:07:07.912Z,0.46